CMA CGM G.washington — MAPY4 — position and weather

sailwx.info

Track history (hours):
 
Tides and Currents Weather Stations Pressure Air Temp Water Temp Dewpoint Dewpoint Depression Visibility Wind Speed Wind Dir Waves Ship Positions

CMA CGM G.washington

Last reported at 2017-Dec-17 11:24 UTC. Time now 2017-Dec-17 23:11 UTC.
Position N 33°44' W 118°15'.

Length 366 m; draft 13.8 m.

Type: Ship (hazmat cat A). MMSI: 232006508.

Date/timePositionNaut miles runAvg speedWind from/ knotsBaromVisibWave heightAir tempDewpointWater temp
2017-Dec-17 11:24N 33°44' W 118°15'0 0.0
2017-Dec-17 11:00N 33°44' W 118°15'0 0.0
2017-Dec-17 10:12N 33°44' W 118°15'0 0.0
2017-Dec-17 10:00N 33°44' W 118°15'0 0.0
2017-Dec-17 09:30N 33°44' W 118°15'0 0.0
2017-Dec-17 08:48N 33°44' W 118°15'0 0.0
2017-Dec-17 08:24N 33°44' W 118°15'4 0.4
2017-Dec-16 22:08N 33°40' W 118°14'1 7.9
2017-Dec-16 22:00N 33°39' W 118°13'4 8.7
2017-Dec-16 21:30N 33°36' W 118°16'611.2
2017-Dec-16 21:00N 33°36' W 118°23'611.6
2017-Dec-16 20:30N 33°36' W 118°30'611.4
2017-Dec-16 20:00N 33°37' W 118°37'611.5
2017-Dec-16 19:30N 33°37' W 118°43'611.4
2017-Dec-16 19:00N 33°37' W 118°50'611.4
2017-Dec-16 18:30N 33°37' W 118°57'611.3
2017-Dec-16 17:58N 33°37' W 119°04'612.2
2017-Dec-16 17:29N 33°36' W 119°12'612.6
2017-Dec-16 17:00N 33°35' W 119°19'713.2
2017-Dec-16 16:29N 33°34' W 119°27'713.8
2017-Dec-16 16:00N 33°33' W 119°35'713.6
2017-Dec-16 15:30N 33°32' W 119°43'713.5
2017-Dec-16 15:00N 33°31' W 119°51'713.1
2017-Dec-16 14:30N 33°30' W 119°59'4 8.2
2017-Dec-16 14:00N 33°30' W 120°04'2 3.6
2017-Dec-16 13:28N 33°29' W 120°06'713.9
2017-Dec-16 13:00N 33°28' W 120°14'816.3
2017-Dec-16 12:30N 33°27' W 120°23'816.0
2017-Dec-16 12:00N 33°26' W 120°33'816.2
2017-Dec-16 11:30N 33°25' W 120°42'816.2
2017-Dec-16 11:00N 33°24' W 120°52'816.4
2017-Dec-16 10:29N 33°23' W 121°02'816.2
2017-Dec-16 10:00N 33°22' W 121°11'816.0
2017-Dec-16 09:30N 33°21' W 121°21'816.0
2017-Dec-16 09:00N 33°20' W 121°30'816.0
2017-Dec-16 08:29N 33°18' W 121°40'816.2
2017-Dec-16 07:59N 33°17' W 121°50'816.1
2017-Dec-16 07:30N 33°16' W 121°59'2616.2
2017-Dec-16 05:53N 33°13' W 122°30'616.4
2017-Dec-16 05:30N 33°12' W 122°37'1816.0
2017-Dec-16 04:22N 33°09' W 122°59'616.2
2017-Dec-16 03:59N 33°08' W 123°06'2216.4
2017-Dec-16 02:39N 33°05' W 123°32'316.2
2017-Dec-16 02:30N 33°05' W 123°35'1016.2
2017-Dec-16 01:53N 33°04' W 123°47'615.9
2017-Dec-16 01:31N 33°03' W 123°54'816.1
2017-Dec-16 01:00N 33°02' W 124°03'817.1
2017-Dec-16 00:31N 33°00' W 124°13'1020.0
2017-Dec-16 00:00N 32°60' W 124°25'1019.9
2017-Dec-15 23:31N 32°60' W 124°37'1019.9
2017-Dec-15 23:00N 32°59' W 124°49'1019.5
2017-Dec-15 22:30N 32°59' W 125°01'1019.9
2017-Dec-15 22:01N 32°59' W 125°12'1019.9
2017-Dec-15 21:31N 32°59' W 125°24'1020.0
2017-Dec-15 21:00N 32°58' W 125°36'1020.1
2017-Dec-15 20:31N 32°58' W 125°48'1019.8
2017-Dec-15 20:00N 32°58' W 126°00'1019.8
2017-Dec-15 19:31N 32°58' W 126°12'1019.9
2017-Dec-15 19:01N 32°57' W 126°24'1019.6
2017-Dec-15 18:30N 32°57' W 126°35'1019.8
2017-Dec-15 18:01N 32°57' W 126°47'1019.8
2017-Dec-15 17:30N 32°57' W 126°59'1019.6
2017-Dec-15 17:01N 32°57' W 127°10'1019.6
2017-Dec-15 16:30N 32°56' W 127°22'1019.5
2017-Dec-15 16:01N 32°56' W 127°34'1019.6
2017-Dec-15 15:31N 32°56' W 127°45'1019.6
2017-Dec-15 15:00N 32°56' W 127°57'1019.7
2017-Dec-15 14:31N 32°55' W 128°09'1019.7
2017-Dec-15 14:01N 32°55' W 128°21'1019.7
2017-Dec-15 13:31N 32°55' W 128°32'1019.7
2017-Dec-15 13:00N 32°55' W 128°44'1019.4
2017-Dec-15 12:31N 32°55' W 128°56'1019.7
2017-Dec-15 12:01N 32°54' W 129°07'1019.8
2017-Dec-15 11:31N 32°54' W 129°19'1019.8
2017-Dec-15 11:00N 32°54' W 129°31'1019.7
2017-Dec-15 10:31N 32°54' W 129°43'1019.8
2017-Dec-15 10:00N 32°54' W 129°54'1019.9
2017-Dec-15 09:31N 32°53' W 130°06'1019.4
2017-Dec-15 09:01N 32°53' W 130°18'1019.6
2017-Dec-15 08:31N 32°54' W 130°29'1019.3
2017-Dec-15 08:00N 32°54' W 130°41'1319.3
2017-Dec-15 07:19N 32°54' W 130°57'1219.6
2017-Dec-15 06:41N 32°54' W 131°12'419.6
2017-Dec-15 06:30N 32°54' W 131°16'919.4
2017-Dec-15 06:01N 32°54' W 131°27'1020.1
2017-Dec-15 05:31N 32°55' W 131°39'1020.4
2017-Dec-15 05:01N 32°55' W 131°51'1019.7
2017-Dec-15 04:30N 32°55' W 132°03'1020.0
2017-Dec-15 04:01N 32°55' W 132°15'3020.2
2017-Dec-15 02:31N 32°56' W 132°51'3520.3
2017-Dec-15 00:48N 32°56' W 133°32'620.2
2017-Dec-15 00:30N 32°56' W 133°39'  
Track history (hours):
 
Tides and Currents Weather Stations Pressure Air Temp Water Temp Dewpoint Dewpoint Depression Visibility Wind Speed Wind Dir Waves Ship Positions

CMA CGM G.washington

Last reported at 2017-Dec-17 11:24 UTC. Time now 2017-Dec-17 23:11 UTC.
Position N 33°44' W 118°15'.

Length 366 m; draft 13.8 m.

Type: Ship (hazmat cat A). MMSI: 232006508.

Date/timePositionNaut miles runAvg speedWind from/ knotsBaromVisibWave heightAir tempDewpointWater temp
2017-Dec-17 11:24N 33°44' W 118°15'0 0.0
2017-Dec-17 11:00N 33°44' W 118°15'0 0.0
2017-Dec-17 10:12N 33°44' W 118°15'0 0.0
2017-Dec-17 10:00N 33°44' W 118°15'0 0.0
2017-Dec-17 09:30N 33°44' W 118°15'0 0.0
2017-Dec-17 08:48N 33°44' W 118°15'0 0.0
2017-Dec-17 08:24N 33°44' W 118°15'4 0.4
2017-Dec-16 22:08N 33°40' W 118°14'1 7.9
2017-Dec-16 22:00N 33°39' W 118°13'4 8.7
2017-Dec-16 21:30N 33°36' W 118°16'611.2
2017-Dec-16 21:00N 33°36' W 118°23'611.6
2017-Dec-16 20:30N 33°36' W 118°30'611.4
2017-Dec-16 20:00N 33°37' W 118°37'611.5
2017-Dec-16 19:30N 33°37' W 118°43'611.4
2017-Dec-16 19:00N 33°37' W 118°50'611.4
2017-Dec-16 18:30N 33°37' W 118°57'611.3
2017-Dec-16 17:58N 33°37' W 119°04'612.2
2017-Dec-16 17:29N 33°36' W 119°12'612.6
2017-Dec-16 17:00N 33°35' W 119°19'713.2
2017-Dec-16 16:29N 33°34' W 119°27'713.8
2017-Dec-16 16:00N 33°33' W 119°35'713.6
2017-Dec-16 15:30N 33°32' W 119°43'713.5
2017-Dec-16 15:00N 33°31' W 119°51'713.1
2017-Dec-16 14:30N 33°30' W 119°59'4 8.2
2017-Dec-16 14:00N 33°30' W 120°04'2 3.6
2017-Dec-16 13:28N 33°29' W 120°06'713.9
2017-Dec-16 13:00N 33°28' W 120°14'816.3
2017-Dec-16 12:30N 33°27' W 120°23'816.0
2017-Dec-16 12:00N 33°26' W 120°33'816.2
2017-Dec-16 11:30N 33°25' W 120°42'816.2
2017-Dec-16 11:00N 33°24' W 120°52'816.4
2017-Dec-16 10:29N 33°23' W 121°02'816.2
2017-Dec-16 10:00N 33°22' W 121°11'816.0
2017-Dec-16 09:30N 33°21' W 121°21'816.0
2017-Dec-16 09:00N 33°20' W 121°30'816.0
2017-Dec-16 08:29N 33°18' W 121°40'816.2
2017-Dec-16 07:59N 33°17' W 121°50'816.1
2017-Dec-16 07:30N 33°16' W 121°59'2616.2
2017-Dec-16 05:53N 33°13' W 122°30'616.4
2017-Dec-16 05:30N 33°12' W 122°37'1816.0
2017-Dec-16 04:22N 33°09' W 122°59'616.2
2017-Dec-16 03:59N 33°08' W 123°06'2216.4
2017-Dec-16 02:39N 33°05' W 123°32'316.2
2017-Dec-16 02:30N 33°05' W 123°35'1016.2
2017-Dec-16 01:53N 33°04' W 123°47'615.9
2017-Dec-16 01:31N 33°03' W 123°54'816.1
2017-Dec-16 01:00N 33°02' W 124°03'817.1
2017-Dec-16 00:31N 33°00' W 124°13'1020.0
2017-Dec-16 00:00N 32°60' W 124°25'1019.9
2017-Dec-15 23:31N 32°60' W 124°37'1019.9
2017-Dec-15 23:00N 32°59' W 124°49'1019.5
2017-Dec-15 22:30N 32°59' W 125°01'1019.9
2017-Dec-15 22:01N 32°59' W 125°12'1019.9
2017-Dec-15 21:31N 32°59' W 125°24'1020.0
2017-Dec-15 21:00N 32°58' W 125°36'1020.1
2017-Dec-15 20:31N 32°58' W 125°48'1019.8
2017-Dec-15 20:00N 32°58' W 126°00'1019.8
2017-Dec-15 19:31N 32°58' W 126°12'1019.9
2017-Dec-15 19:01N 32°57' W 126°24'1019.6
2017-Dec-15 18:30N 32°57' W 126°35'1019.8
2017-Dec-15 18:01N 32°57' W 126°47'1019.8
2017-Dec-15 17:30N 32°57' W 126°59'1019.6
2017-Dec-15 17:01N 32°57' W 127°10'1019.6
2017-Dec-15 16:30N 32°56' W 127°22'1019.5
2017-Dec-15 16:01N 32°56' W 127°34'1019.6
2017-Dec-15 15:31N 32°56' W 127°45'1019.6
2017-Dec-15 15:00N 32°56' W 127°57'1019.7
2017-Dec-15 14:31N 32°55' W 128°09'1019.7
2017-Dec-15 14:01N 32°55' W 128°21'1019.7
2017-Dec-15 13:31N 32°55' W 128°32'1019.7
2017-Dec-15 13:00N 32°55' W 128°44'1019.4
2017-Dec-15 12:31N 32°55' W 128°56'1019.7
2017-Dec-15 12:01N 32°54' W 129°07'1019.8
2017-Dec-15 11:31N 32°54' W 129°19'1019.8
2017-Dec-15 11:00N 32°54' W 129°31'1019.7
2017-Dec-15 10:31N 32°54' W 129°43'1019.8
2017-Dec-15 10:00N 32°54' W 129°54'1019.9
2017-Dec-15 09:31N 32°53' W 130°06'1019.4
2017-Dec-15 09:01N 32°53' W 130°18'1019.6
2017-Dec-15 08:31N 32°54' W 130°29'1019.3
2017-Dec-15 08:00N 32°54' W 130°41'1319.3
2017-Dec-15 07:19N 32°54' W 130°57'1219.6
2017-Dec-15 06:41N 32°54' W 131°12'419.6
2017-Dec-15 06:30N 32°54' W 131°16'919.4
2017-Dec-15 06:01N 32°54' W 131°27'1020.1
2017-Dec-15 05:31N 32°55' W 131°39'1020.4
2017-Dec-15 05:01N 32°55' W 131°51'1019.7
2017-Dec-15 04:30N 32°55' W 132°03'1020.0
2017-Dec-15 04:01N 32°55' W 132°15'3020.2
2017-Dec-15 02:31N 32°56' W 132°51'3520.3
2017-Dec-15 00:48N 32°56' W 133°32'620.2
2017-Dec-15 00:30N 32°56' W 133°39'  

Dump ship's entire track history